createdAt,value
2023-02-16T00:02:00.187Z,101121.00
2023-02-16T00:04:30.081Z,101117.84
2023-02-16T00:06:59.316Z,101125.56
2023-02-16T00:09:26.825Z,101114.56
2023-02-16T00:12:11.912Z,101118.06
2023-02-16T00:14:40.693Z,101113.69
2023-02-16T00:17:11.853Z,101116.19
2023-02-16T00:19:41.908Z,101117.19
2023-02-16T00:22:11.560Z,101125.25
2023-02-16T00:24:39.125Z,101115.56
2023-02-16T00:27:14.329Z,101122.84
2023-02-16T00:29:44.777Z,101121.31
2023-02-16T00:32:14.506Z,101107.75
2023-02-16T00:34:45.211Z,101097.97
2023-02-16T00:37:15.272Z,101109.31
2023-02-16T00:39:44.481Z,101106.38
2023-02-16T00:42:18.348Z,101105.84
2023-02-16T00:44:48.911Z,101113.31
2023-02-16T00:47:20.389Z,101125.47
2023-02-16T00:49:48.538Z,101103.72
2023-02-16T00:52:36.452Z,101114.03
2023-02-16T00:55:07.478Z,101098.53
2023-02-16T00:57:38.438Z,101097.78
2023-02-16T01:00:09.605Z,101094.69
2023-02-16T01:02:37.229Z,101087.88
2023-02-16T01:05:04.934Z,101100.56
2023-02-16T01:07:51.299Z,101109.88
2023-02-16T01:10:36.636Z,101107.63
2023-02-16T01:13:04.637Z,101114.38
2023-02-16T01:15:32.729Z,101125.63
2023-02-16T01:18:00.499Z,101116.56
2023-02-16T01:20:28.798Z,101116.81
2023-02-16T01:22:57.812Z,101117.63
2023-02-16T01:25:25.553Z,101117.41
2023-02-16T01:27:54.562Z,101104.78
2023-02-16T01:30:24.087Z,101109.19
2023-02-16T01:32:52.338Z,101101.13
2023-02-16T01:35:20.918Z,101111.38
2023-02-16T01:37:48.698Z,101107.34
2023-02-16T01:40:31.536Z,101102.72
2023-02-16T01:43:05.264Z,101107.63
2023-02-16T01:45:36.758Z,101099.44
2023-02-16T01:48:06.958Z,101100.16
2023-02-16T01:50:46.917Z,101096.84
2023-02-16T01:53:23.406Z,101101.16
2023-02-16T01:55:59.285Z,101108.50
2023-02-16T01:58:36.612Z,101120.63
2023-02-16T02:01:37.284Z,101119.13
2023-02-16T02:04:30.622Z,101114.31
2023-02-16T02:06:58.290Z,101115.22
2023-02-16T02:09:35.718Z,101102.72
2023-02-16T02:12:14.979Z,101107.50
2023-02-16T02:14:43.532Z,101108.03
2023-02-16T02:17:15.812Z,101100.72
2023-02-16T02:19:52.073Z,101103.84
2023-02-16T02:23:21.840Z,101095.91
2023-02-16T02:26:15.215Z,101092.09
2023-02-16T02:28:54.410Z,101098.16
2023-02-16T02:31:35.242Z,101095.63
2023-02-16T02:34:13.774Z,101088.44
2023-02-16T02:36:50.895Z,101080.16
2023-02-16T02:39:34.121Z,101079.75
2023-02-16T02:42:10.631Z,101074.22
2023-02-16T02:44:50.803Z,101063.03
2023-02-16T02:47:18.984Z,101054.72
2023-02-16T02:49:51.810Z,101061.53
2023-02-16T02:52:20.244Z,101054.97
2023-02-16T02:55:07.354Z,101053.66
2023-02-16T02:57:59.392Z,101066.78
2023-02-16T03:00:44.936Z,101070.22
2023-02-16T03:03:18.561Z,101060.72
2023-02-16T03:05:50.401Z,101066.53
2023-02-16T03:08:21.544Z,101077.38
2023-02-16T03:11:10.317Z,101075.81
2023-02-16T03:13:41.210Z,101071.03
2023-02-16T03:16:14.032Z,101070.00
2023-02-16T03:19:02.130Z,101066.72
2023-02-16T03:21:48.076Z,101071.50
2023-02-16T03:24:40.057Z,101061.75
2023-02-16T03:27:27.448Z,101075.56
2023-02-16T03:29:57.774Z,101079.09
2023-02-16T03:32:26.960Z,101083.66
2023-02-16T03:34:54.613Z,101074.09
2023-02-16T03:37:22.146Z,101079.41
2023-02-16T03:40:08.108Z,101070.81
2023-02-16T03:42:35.707Z,101069.31
2023-02-16T03:45:03.376Z,101071.34
2023-02-16T03:47:32.322Z,101068.06
2023-02-16T03:49:59.912Z,101071.66
2023-02-16T03:52:27.558Z,101070.00
2023-02-16T03:54:55.083Z,101069.47
2023-02-16T03:57:22.587Z,101070.69
2023-02-16T03:59:50.805Z,101069.53
2023-02-16T04:02:18.442Z,101066.19
2023-02-16T04:04:47.861Z,101070.22
2023-02-16T04:07:15.460Z,101070.69
2023-02-16T04:09:43.053Z,101072.44
2023-02-16T04:12:30.183Z,101073.97
2023-02-16T04:14:58.005Z,101077.25
2023-02-16T04:17:25.717Z,101084.06
2023-02-16T04:19:54.634Z,101086.47
2023-02-16T04:22:22.247Z,101076.72
2023-02-16T04:24:49.802Z,101066.31
2023-02-16T04:27:17.347Z,101071.06
2023-02-16T04:29:44.959Z,101084.47
2023-02-16T04:32:12.629Z,101079.41
2023-02-16T04:34:40.170Z,101087.28
2023-02-16T04:37:09.188Z,101084.75
2023-02-16T04:39:36.815Z,101081.03
2023-02-16T04:42:05.064Z,101079.69
2023-02-16T04:44:32.682Z,101081.19
2023-02-16T04:47:00.444Z,101086.22
2023-02-16T04:49:28.067Z,101086.53
2023-02-16T04:51:55.767Z,101079.69
2023-02-16T04:54:24.691Z,101081.19
2023-02-16T04:56:52.216Z,101092.91
2023-02-16T04:59:19.986Z,101085.50
2023-02-16T05:01:47.592Z,101077.16
2023-02-16T05:04:16.482Z,101076.88
2023-02-16T05:06:44.290Z,101077.50
2023-02-16T05:09:12.378Z,101086.56
2023-02-16T05:11:58.653Z,101081.50
2023-02-16T05:14:44.981Z,101084.03
2023-02-16T05:17:15.956Z,101080.50
2023-02-16T05:19:45.051Z,101080.38
2023-02-16T05:22:12.944Z,101084.13
2023-02-16T05:24:40.846Z,101084.72
2023-02-16T05:27:13.346Z,101085.13
2023-02-16T05:29:41.179Z,101086.91
2023-02-16T05:32:08.870Z,101081.09
2023-02-16T05:34:36.480Z,101080.72
2023-02-16T05:37:04.135Z,101087.53
2023-02-16T05:39:31.868Z,101082.81
2023-02-16T05:42:00.020Z,101088.88
2023-02-16T05:44:29.045Z,101083.94
2023-02-16T05:46:56.985Z,101083.06
2023-02-16T05:49:24.657Z,101087.09
2023-02-16T05:51:52.591Z,101084.03
2023-02-16T05:54:20.307Z,101087.78
2023-02-16T05:56:49.907Z,101088.97
2023-02-16T05:59:18.243Z,101084.94
2023-02-16T06:01:51.319Z,101096.81
2023-02-16T06:04:21.044Z,101089.72
2023-02-16T06:06:48.697Z,101095.38
2023-02-16T06:09:16.373Z,101095.06
2023-02-16T06:11:44.150Z,101095.69
2023-02-16T06:14:13.788Z,101096.91
2023-02-16T06:16:44.233Z,101101.81
2023-02-16T06:19:13.505Z,101106.69
2023-02-16T06:21:41.988Z,101107.13
2023-02-16T06:24:11.724Z,101103.72
2023-02-16T06:26:39.391Z,101100.19
2023-02-16T06:29:07.448Z,101105.81
2023-02-16T06:31:36.554Z,101103.47
2023-02-16T06:34:05.299Z,101096.03
2023-02-16T06:36:35.146Z,101101.06
2023-02-16T06:39:02.773Z,101107.47
2023-02-16T06:41:35.681Z,101103.91
2023-02-16T06:44:06.121Z,101101.66
2023-02-16T06:46:33.894Z,101093.06
2023-02-16T06:49:02.206Z,101104.06
2023-02-16T06:51:29.832Z,101101.41
2023-02-16T06:53:58.754Z,101100.63
2023-02-16T06:56:26.467Z,101102.56
2023-02-16T06:58:54.103Z,101114.97
2023-02-16T07:01:25.585Z,101123.25
2023-02-16T07:03:55.067Z,101126.84
2023-02-16T07:06:24.070Z,101131.88
2023-02-16T07:08:51.660Z,101124.31
2023-02-16T07:11:21.188Z,101134.97
2023-02-16T07:13:49.086Z,101126.50
2023-02-16T07:16:17.429Z,101128.28
2023-02-16T07:18:46.142Z,101134.22
2023-02-16T07:21:14.150Z,101139.13
2023-02-16T07:23:41.739Z,101145.34
2023-02-16T07:26:09.624Z,101146.00
2023-02-16T07:28:38.638Z,101144.97
2023-02-16T07:31:10.309Z,101146.63
2023-02-16T07:33:38.764Z,101140.63
2023-02-16T07:36:07.294Z,101146.63
2023-02-16T07:38:35.213Z,101151.75
2023-02-16T07:41:03.569Z,101146.53
2023-02-16T07:43:31.944Z,101139.38
2023-02-16T07:46:00.975Z,101141.66
2023-02-16T07:48:28.666Z,101134.59
2023-02-16T07:50:56.310Z,101147.00
2023-02-16T07:53:23.861Z,101137.38
2023-02-16T07:55:51.493Z,101136.72
2023-02-16T07:58:28.041Z,101143.13
2023-02-16T08:00:57.032Z,101136.31
2023-02-16T08:03:26.014Z,101148.31
2023-02-16T08:05:56.600Z,101145.19
2023-02-16T08:08:24.369Z,101151.88
2023-02-16T08:10:51.972Z,101134.84
2023-02-16T08:13:19.696Z,101142.47
2023-02-16T08:15:47.285Z,101151.28
2023-02-16T08:18:15.203Z,101145.97
2023-02-16T08:21:03.963Z,101155.25
2023-02-16T08:23:32.349Z,101148.47
2023-02-16T08:26:00.009Z,101150.63
2023-02-16T08:28:28.881Z,101150.78
2023-02-16T08:30:56.938Z,101149.03
2023-02-16T08:33:24.994Z,101157.38
2023-02-16T08:35:54.142Z,101155.75
2023-02-16T08:38:21.749Z,101157.41
2023-02-16T08:40:49.663Z,101154.78
2023-02-16T08:43:17.376Z,101151.38
2023-02-16T08:45:45.233Z,101164.03
2023-02-16T08:48:12.788Z,101151.22
2023-02-16T08:50:46.886Z,101146.75
2023-02-16T08:53:15.887Z,101148.31
2023-02-16T08:55:43.481Z,101151.13
2023-02-16T08:58:11.066Z,101155.09
2023-02-16T09:00:38.885Z,101154.59
2023-02-16T09:03:06.957Z,101150.97
2023-02-16T09:05:35.208Z,101143.34
2023-02-16T09:08:03.425Z,101154.22
2023-02-16T09:10:32.873Z,101156.19
2023-02-16T09:13:00.509Z,101162.44
2023-02-16T09:15:28.690Z,101150.41
2023-02-16T09:17:56.385Z,101150.44
2023-02-16T09:20:24.484Z,101153.91
2023-02-16T09:22:52.476Z,101149.06
2023-02-16T09:25:20.106Z,101140.78
2023-02-16T09:27:49.461Z,101138.81
2023-02-16T09:30:17.337Z,101135.06
2023-02-16T09:32:45.132Z,101134.16
2023-02-16T09:35:12.744Z,101138.56
2023-02-16T09:37:40.280Z,101142.94
2023-02-16T09:40:11.701Z,101149.13
2023-02-16T09:43:00.691Z,101155.97
2023-02-16T09:45:29.618Z,101157.84
2023-02-16T09:47:59.220Z,101153.69
2023-02-16T09:50:53.935Z,101154.38
2023-02-16T09:53:22.995Z,101151.28
2023-02-16T09:56:03.106Z,101143.34
2023-02-16T09:58:40.505Z,101140.56
2023-02-16T10:01:17.967Z,101142.78
2023-02-16T10:03:55.480Z,101149.69
2023-02-16T10:06:33.087Z,101148.13
2023-02-16T10:09:07.331Z,101139.63
2023-02-16T10:11:42.603Z,101134.78
2023-02-16T10:14:23.273Z,101129.88
2023-02-16T10:16:57.989Z,101130.22
2023-02-16T10:19:30.291Z,101129.22
2023-02-16T10:22:01.180Z,101124.63
2023-02-16T10:24:32.672Z,101112.66
2023-02-16T10:27:07.524Z,101119.63
2023-02-16T10:29:36.490Z,101113.31
2023-02-16T10:32:13.443Z,101108.44
2023-02-16T10:34:49.429Z,101110.47
2023-02-16T10:37:42.632Z,101111.63
2023-02-16T10:40:24.263Z,101108.03
2023-02-16T10:42:59.399Z,101105.00
2023-02-16T10:45:34.200Z,101106.38
2023-02-16T10:48:01.812Z,101095.34
2023-02-16T10:50:33.025Z,101099.72
2023-02-16T10:53:05.584Z,101100.97
2023-02-16T10:55:33.149Z,101101.91
2023-02-16T10:58:02.967Z,101097.59
2023-02-16T11:00:46.700Z,101094.09
2023-02-16T11:03:15.824Z,101091.44
2023-02-16T11:05:43.542Z,101088.78
2023-02-16T11:08:12.850Z,101076.13
2023-02-16T11:10:49.004Z,101077.50
2023-02-16T11:13:32.886Z,101080.81
2023-02-16T11:16:07.155Z,101080.22
2023-02-16T11:18:37.850Z,101079.16
2023-02-16T11:21:07.370Z,101066.97
2023-02-16T11:23:36.407Z,101068.56
2023-02-16T11:26:06.590Z,101061.38
2023-02-16T11:28:36.944Z,101063.00
2023-02-16T11:35:11.462Z,101054.22
2023-02-16T11:37:41.585Z,101049.38
2023-02-16T11:40:21.486Z,101045.28
2023-02-16T11:42:51.956Z,101038.69
2023-02-16T11:45:29.620Z,101040.59
2023-02-16T11:48:01.508Z,101040.75
2023-02-16T11:50:33.467Z,101026.97
2023-02-16T11:53:16.199Z,101025.13
2023-02-16T11:55:46.525Z,101009.75
2023-02-16T11:58:17.354Z,101008.06
2023-02-16T12:00:57.479Z,101004.44
2023-02-16T12:03:44.817Z,100996.19
2023-02-16T12:06:28.686Z,100984.66
2023-02-16T12:09:09.003Z,100987.81
2023-02-16T12:11:44.733Z,100980.34
2023-02-16T12:14:24.729Z,100973.59
2023-02-16T12:16:58.628Z,100969.75
2023-02-16T12:19:39.402Z,100969.09
2023-02-16T12:22:17.334Z,100969.72
2023-02-16T12:24:54.467Z,100967.72
2023-02-16T12:27:27.481Z,100961.09
2023-02-16T12:30:01.759Z,100966.31
2023-02-16T12:32:43.937Z,100960.59
2023-02-16T12:35:34.503Z,100961.31
2023-02-16T12:38:14.344Z,100961.03
2023-02-16T12:40:52.517Z,100962.13
2023-02-16T12:43:33.532Z,100955.19
2023-02-16T12:46:07.181Z,100947.50
2023-02-16T12:48:43.145Z,100952.59
2023-02-16T12:51:16.503Z,100947.06
2023-02-16T12:53:47.865Z,100938.44
2023-02-16T12:56:21.473Z,100940.03
2023-02-16T12:58:55.324Z,100935.50
2023-02-16T13:01:26.691Z,100936.47
2023-02-16T13:03:58.544Z,100935.19
2023-02-16T13:06:30.610Z,100934.59
2023-02-16T13:09:12.150Z,100931.47
2023-02-16T13:11:46.560Z,100927.25
2023-02-16T13:14:18.601Z,100934.28
2023-02-16T13:16:50.871Z,100936.78
2023-02-16T13:19:18.533Z,100930.56
2023-02-16T13:22:19.372Z,100930.41
2023-02-16T13:24:59.863Z,100939.00
2023-02-16T13:27:36.959Z,100930.81
2023-02-16T13:30:38.133Z,100938.13
2023-02-16T13:33:21.884Z,100921.56
2023-02-16T13:35:58.644Z,100927.00
2023-02-16T13:38:50.932Z,100931.13
2023-02-16T13:41:35.616Z,100919.34
2023-02-16T13:44:08.977Z,100916.06
2023-02-16T13:46:39.442Z,100908.38
2023-02-16T13:49:07.563Z,100914.63
2023-02-16T13:51:43.392Z,100916.31
2023-02-16T13:54:27.845Z,100923.53
2023-02-16T13:56:56.841Z,100916.41
2023-02-16T13:59:57.532Z,100913.88
2023-02-16T14:02:58.588Z,100904.59
2023-02-16T14:05:35.191Z,100902.47
2023-02-16T14:08:30.332Z,100902.44
2023-02-16T14:11:04.524Z,100894.94
2023-02-16T14:13:45.261Z,100893.28
2023-02-16T14:16:27.036Z,100881.25
2023-02-16T14:18:58.166Z,100885.47
2023-02-16T14:21:33.029Z,100879.44
2023-02-16T14:24:03.207Z,100878.50
2023-02-16T14:26:31.710Z,100892.41
2023-02-16T14:29:12.365Z,100870.34
2023-02-16T14:31:45.317Z,100877.78
2023-02-16T14:34:18.776Z,100878.53
2023-02-16T14:37:04.509Z,100878.78
2023-02-16T14:39:34.966Z,100887.50
2023-02-16T14:42:08.482Z,100878.97
2023-02-16T14:44:56.227Z,100875.66
2023-02-16T14:47:37.883Z,100865.19
2023-02-16T14:50:24.066Z,100860.03
2023-02-16T14:53:17.808Z,100848.56
2023-02-16T14:56:28.436Z,100856.63
2023-02-16T14:59:01.546Z,100852.41
2023-02-16T15:01:41.082Z,100862.25
2023-02-16T15:04:10.844Z,100865.47
2023-02-16T15:06:42.580Z,100867.78
2023-02-16T15:09:17.640Z,100857.28
2023-02-16T15:12:08.895Z,100864.75
2023-02-16T15:14:42.967Z,100855.84
2023-02-16T15:17:25.238Z,100864.16
2023-02-16T15:19:54.641Z,100860.59
2023-02-16T15:22:25.354Z,100862.13
2023-02-16T15:24:58.070Z,100848.03
2023-02-16T15:27:25.962Z,100855.59
2023-02-16T15:30:09.311Z,100853.00
2023-02-16T15:32:38.832Z,100848.41
2023-02-16T15:35:14.370Z,100845.59
2023-02-16T15:37:41.951Z,100847.22
2023-02-16T15:40:30.682Z,100844.56
2023-02-16T15:43:04.019Z,100837.47
2023-02-16T15:45:35.148Z,100832.97
2023-02-16T15:48:22.806Z,100834.41
2023-02-16T15:50:53.455Z,100838.59
2023-02-16T15:53:34.783Z,100841.00
2023-02-16T15:56:05.904Z,100830.41
2023-02-16T15:58:34.135Z,100838.00
2023-02-16T16:01:02.483Z,100835.31
2023-02-16T16:03:34.247Z,100825.78
2023-02-16T16:06:06.036Z,100842.88
2023-02-16T16:08:34.141Z,100844.41
2023-02-16T16:11:02.659Z,100836.53
2023-02-16T16:13:32.870Z,100834.69
2023-02-16T16:16:07.130Z,100832.88
2023-02-16T16:18:44.103Z,100825.75
2023-02-16T16:21:19.119Z,100832.44
2023-02-16T16:23:58.831Z,100832.16
2023-02-16T16:26:28.097Z,100837.03
2023-02-16T16:28:57.017Z,100835.13
2023-02-16T16:31:39.378Z,100833.16
2023-02-16T16:34:10.448Z,100831.22
2023-02-16T16:36:41.833Z,100834.47
2023-02-16T16:39:20.108Z,100829.00
2023-02-16T16:42:07.889Z,100833.91
2023-02-16T16:44:37.647Z,100837.97
2023-02-16T16:47:14.500Z,100837.69
2023-02-16T16:49:51.334Z,100845.16
2023-02-16T16:52:40.915Z,100843.97
2023-02-16T16:55:22.423Z,100844.53
2023-02-16T16:57:51.769Z,100845.16
2023-02-16T17:00:20.424Z,100845.75
2023-02-16T17:02:48.474Z,100849.06
2023-02-16T17:05:17.674Z,100849.59
2023-02-16T17:07:48.933Z,100855.44
2023-02-16T17:10:18.709Z,100856.84
2023-02-16T17:12:47.026Z,100857.50
2023-02-16T17:15:30.228Z,100865.16
2023-02-16T17:17:58.870Z,100867.44
2023-02-16T17:20:27.966Z,100864.78
2023-02-16T17:22:55.708Z,100869.56
2023-02-16T17:25:23.330Z,100864.19
2023-02-16T17:27:51.211Z,100862.31
2023-02-16T17:30:18.831Z,100869.88
2023-02-16T17:32:46.346Z,100870.53
2023-02-16T17:35:14.726Z,100872.94
2023-02-16T17:37:43.687Z,100871.88
2023-02-16T17:40:15.336Z,100866.53
2023-02-16T17:42:42.902Z,100870.69
2023-02-16T17:45:10.832Z,100871.41
2023-02-16T17:47:38.471Z,100864.34
2023-02-16T17:50:07.242Z,100869.34
2023-02-16T17:52:38.735Z,100867.59
2023-02-16T17:55:08.963Z,100872.75
2023-02-16T17:57:37.339Z,100871.69
2023-02-16T18:00:07.104Z,100875.78
2023-02-16T18:02:34.967Z,100868.75
2023-02-16T18:05:02.686Z,100864.28
2023-02-16T18:07:30.367Z,100867.69
2023-02-16T18:09:57.909Z,100870.03
2023-02-16T18:12:28.391Z,100871.41
2023-02-16T18:14:56.196Z,100870.31
2023-02-16T18:17:23.789Z,100867.63
2023-02-16T18:19:51.411Z,100875.16
2023-02-16T18:22:18.965Z,100868.06
2023-02-16T18:24:50.294Z,100866.19
2023-02-16T18:27:21.416Z,100873.75
2023-02-16T18:29:52.076Z,100877.88
2023-02-16T18:32:19.695Z,100879.38
2023-02-16T18:34:48.351Z,100888.69
2023-02-16T18:37:16.074Z,100881.66
2023-02-16T18:39:43.792Z,100880.66
2023-02-16T18:42:11.515Z,100886.69
2023-02-16T18:44:39.143Z,100887.31
2023-02-16T18:47:08.749Z,100883.84
2023-02-16T18:49:36.399Z,100887.22
2023-02-16T18:52:04.111Z,100879.38
2023-02-16T18:54:32.250Z,100874.25
2023-02-16T18:56:59.832Z,100872.50
2023-02-16T18:59:27.496Z,100875.84
2023-02-16T19:01:56.827Z,100872.50
2023-02-16T19:04:26.700Z,100874.94
2023-02-16T19:06:54.319Z,100870.59
2023-02-16T19:09:22.019Z,100876.47
2023-02-16T19:11:49.658Z,100872.03
2023-02-16T19:14:18.512Z,100865.94
2023-02-16T19:16:46.551Z,100875.22
2023-02-16T19:19:14.215Z,100873.44
2023-02-16T19:21:44.273Z,100877.72
2023-02-16T19:24:12.889Z,100875.09
2023-02-16T19:26:40.765Z,100869.94
2023-02-16T19:29:08.521Z,100862.28
2023-02-16T19:31:36.374Z,100864.53
2023-02-16T19:34:08.138Z,100863.66
2023-02-16T19:36:35.784Z,100862.66
2023-02-16T19:39:04.704Z,100864.28
2023-02-16T19:41:35.694Z,100864.75
2023-02-16T19:44:07.653Z,100859.59
2023-02-16T19:46:35.397Z,100861.91
2023-02-16T19:49:03.381Z,100867.78
2023-02-16T19:51:31.355Z,100872.03
2023-02-16T19:53:59.425Z,100877.66
2023-02-16T19:56:28.669Z,100873.19
2023-02-16T19:58:58.877Z,100868.78
2023-02-16T20:01:28.657Z,100872.91
2023-02-16T20:03:58.056Z,100872.00
2023-02-16T20:06:28.178Z,100874.69
2023-02-16T20:08:57.414Z,100873.81
2023-02-16T20:11:28.924Z,100874.69
2023-02-16T20:13:57.056Z,100873.72
2023-02-16T20:16:26.310Z,100879.53
2023-02-16T20:18:54.459Z,100873.44
2023-02-16T20:21:23.944Z,100877.75
2023-02-16T20:23:54.882Z,100885.59
2023-02-16T20:26:24.363Z,100887.03
2023-02-16T20:28:53.958Z,100898.19
2023-02-16T20:31:26.103Z,100878.78
2023-02-16T20:33:54.157Z,100888.19
2023-02-16T20:36:22.708Z,100883.19
2023-02-16T20:38:51.240Z,100886.69
2023-02-16T20:41:19.686Z,100880.22
2023-02-16T20:43:48.035Z,100881.84
2023-02-16T20:46:18.502Z,100873.59
2023-02-16T20:48:46.328Z,100877.13
2023-02-16T20:51:18.672Z,100879.22
2023-02-16T20:53:47.615Z,100865.63
2023-02-16T20:56:19.516Z,100861.00
2023-02-16T20:58:49.451Z,100863.13
2023-02-16T21:01:22.392Z,100869.22
2023-02-16T21:03:50.373Z,100856.97
2023-02-16T21:06:18.309Z,100865.31
2023-02-16T21:08:46.196Z,100860.31
2023-02-16T21:11:14.468Z,100857.59
2023-02-16T21:13:42.851Z,100854.97
2023-02-16T21:16:10.974Z,100853.44
2023-02-16T21:18:40.708Z,100851.78
2023-02-16T21:21:09.402Z,100848.25
2023-02-16T21:23:37.565Z,100851.22
2023-02-16T21:26:06.707Z,100844.56
2023-02-16T21:28:34.545Z,100846.75
2023-02-16T21:31:04.144Z,100848.63
2023-02-16T21:33:31.838Z,100845.44
2023-02-16T21:36:06.206Z,100842.06
2023-02-16T21:38:35.838Z,100843.47
2023-02-16T21:41:23.123Z,100846.00
2023-02-16T21:43:51.093Z,100849.44
2023-02-16T21:46:18.797Z,100845.44
2023-02-16T21:48:45.472Z,100844.91
2023-02-16T21:51:15.264Z,100850.59
2023-02-16T21:53:43.528Z,100843.13
2023-02-16T21:56:23.915Z,100841.31
2023-02-16T21:58:51.571Z,100835.00
2023-02-16T22:01:23.767Z,100832.47
2023-02-16T22:03:56.009Z,100835.56
2023-02-16T22:06:25.895Z,100831.06
2023-02-16T22:08:53.828Z,100831.66
2023-02-16T22:11:21.413Z,100828.03
2023-02-16T22:13:53.187Z,100828.91
2023-02-16T22:16:21.369Z,100833.44
2023-02-16T22:18:49.894Z,100832.53
2023-02-16T22:21:18.043Z,100827.94
2023-02-16T22:23:46.950Z,100828.44
2023-02-16T22:26:21.575Z,100828.00
2023-02-16T22:28:49.289Z,100825.91
2023-02-16T22:31:17.444Z,100826.38
2023-02-16T22:33:45.103Z,100822.72
2023-02-16T22:36:13.998Z,100825.94
2023-02-16T22:38:42.285Z,100823.25
2023-02-16T22:41:12.947Z,100828.28
2023-02-16T22:43:40.996Z,100829.56
2023-02-16T22:46:09.896Z,100818.19
2023-02-16T22:48:37.501Z,100815.88
2023-02-16T22:51:06.857Z,100814.88
2023-02-16T22:53:35.442Z,100821.25
2023-02-16T22:56:06.048Z,100820.38
2023-02-16T22:58:35.874Z,100821.13
2023-02-16T23:01:04.158Z,100822.53
2023-02-16T23:03:35.100Z,100818.22
2023-02-16T23:06:03.298Z,100819.84
2023-02-16T23:08:30.946Z,100814.81
2023-02-16T23:11:01.602Z,100819.03
2023-02-16T23:13:30.864Z,100829.00
2023-02-16T23:16:05.029Z,100827.44
2023-02-16T23:18:32.832Z,100834.34
2023-02-16T23:21:06.227Z,100826.59
2023-02-16T23:23:33.797Z,100831.63
2023-02-16T23:26:01.443Z,100836.47
2023-02-16T23:28:29.027Z,100834.06
2023-02-16T23:30:57.842Z,100842.09
2023-02-16T23:33:27.033Z,100836.88
2023-02-16T23:35:55.710Z,100836.22
2023-02-16T23:38:23.372Z,100832.25
2023-02-16T23:40:57.301Z,100838.94
2023-02-16T23:43:25.280Z,100837.84
2023-02-16T23:45:53.390Z,100836.75
2023-02-16T23:48:21.313Z,100827.75
2023-02-16T23:50:50.545Z,100824.31
2023-02-16T23:53:18.880Z,100830.59
2023-02-16T23:55:46.728Z,100823.72
2023-02-16T23:58:14.312Z,100824.97
